Time;durP1;ratioP1;P1;durP2;ratioP2;P2;SDS_P1;SDS_P2;PMS_P1;PMS_P2;Temp;Humidity;BMP_temperature;BMP_pressure;BME280_temperature;BME280_humidity;BME280_pressure;Samples;Min_cycle;Max_cycle;Signal;HPM_P1;HPM_P2
2023/10/03 00:00:31;;;;;;;19.52;6.55;;;;;;;19.16;81.95;101025.00;4976128;28;96491;-27
2023/10/03 00:02:57;;;;;;;21.65;5.53;;;;;;;19.17;81.77;101026.75;4974478;28;96835;-27
2023/10/03 00:05:28;;;;;;;22.40;6.65;;;;;;;19.20;81.66;101023.69;4975659;28;97405;-27
2023/10/03 00:07:54;;;;;;;22.02;6.05;;;;;;;19.23;81.58;101017.03;4975597;28;99134;-29
2023/10/03 00:10:20;;;;;;;21.75;5.55;;;;;;;19.24;81.17;101008.66;4974518;28;96800;-29
2023/10/03 00:12:50;;;;;;;21.35;6.07;;;;;;;19.24;81.23;101008.66;4974777;28;96789;-27
2023/10/03 00:15:21;;;;;;;19.30;5.85;;;;;;;19.22;81.10;101007.94;4975512;28;99461;-28
2023/10/03 00:17:47;;;;;;;22.95;7.00;;;;;;;19.15;81.23;100995.81;4974173;28;100833;-27
2023/10/03 00:20:16;;;;;;;19.75;5.90;;;;;;;19.24;81.13;101005.06;4973804;28;96613;-27
2023/10/03 00:22:44;;;;;;;21.77;5.47;;;;;;;19.24;81.07;100994.06;4974465;28;96741;-27
2023/10/03 00:25:17;;;;;;;17.88;6.30;;;;;;;19.21;80.76;100992.50;4975324;28;99321;-27
2023/10/03 00:27:46;;;;;;;22.35;6.38;;;;;;;19.19;80.70;100988.16;4974121;28;101280;-28
2023/10/03 00:30:13;;;;;;;21.80;6.57;;;;;;;19.22;80.23;100982.38;4974082;28;96653;-27
2023/10/03 00:32:40;;;;;;;27.52;7.20;;;;;;;19.25;80.78;100979.31;4973871;28;96958;-27
2023/10/03 00:35:06;;;;;;;21.35;7.10;;;;;;;19.23;80.29;100981.34;4975096;28;99345;-28
2023/10/03 00:37:32;;;;;;;22.73;6.32;;;;;;;19.22;80.29;100977.72;4974234;28;101217;-27
2023/10/03 00:39:59;;;;;;;19.58;6.63;;;;;;;19.22;80.29;100977.72;4975441;28;96756;-28
2023/10/03 00:42:24;;;;;;;22.95;6.72;;;;;;;19.19;80.33;100963.44;4975572;28;96823;-27
2023/10/03 00:44:50;;;;;;;20.73;5.78;;;;;;;19.20;80.29;100967.91;4974245;28;98546;-27
2023/10/03 00:47:15;;;;;;;20.02;6.93;;;;;;;19.18;80.16;100967.19;4975285;28;97767;-28
2023/10/03 00:49:43;;;;;;;20.30;5.95;;;;;;;19.20;80.56;100957.78;4975407;28;96640;-27
2023/10/03 00:52:09;;;;;;;21.23;6.43;;;;;;;19.22;80.30;100954.91;4974007;28;96819;-27
2023/10/03 00:54:36;;;;;;;20.92;6.13;;;;;;;19.18;80.35;100954.31;4973436;28;100922;-27
2023/10/03 00:57:02;;;;;;;26.88;5.75;;;;;;;19.16;80.55;100945.34;4973568;28;100901;-27
2023/10/03 00:59:28;;;;;;;18.20;5.55;;;;;;;19.16;80.58;100939.00;4975387;28;96550;-27
2023/10/03 01:02:02;;;;;;;18.63;5.03;;;;;;;19.16;80.26;100928.88;4974194;28;96807;-27
2023/10/03 01:04:31;;;;;;;21.65;7.07;;;;;;;19.13;80.49;100931.06;4958281;28;101328;-27
2023/10/03 01:06:59;;;;;;;18.83;5.78;;;;;;;19.13;80.32;100915.47;4974897;28;97952;-27
2023/10/03 01:09:29;;;;;;;19.15;4.90;;;;;;;19.12;80.51;100911.00;4973237;28;96676;-33
2023/10/03 01:11:56;;;;;;;18.75;5.78;;;;;;;19.15;80.56;100915.31;4973657;28;96826;-27
2023/10/03 01:14:22;;;;;;;23.38;7.22;;;;;;;19.12;80.31;100888.16;4973349;28;100801;-27
2023/10/03 01:16:48;;;;;;;22.58;5.55;;;;;;;19.12;80.18;100893.66;4974627;28;99589;-27
2023/10/03 01:21:49;;;;;;;22.25;6.18;;;;;;;19.14;80.45;100906.22;4974509;28;96583;-27
2023/10/03 01:24:20;;;;;;;22.63;5.93;;;;;;;19.14;80.23;100910.81;4973144;28;101330;-27
2023/10/03 01:26:49;;;;;;;20.20;5.30;;;;;;;19.13;80.49;100915.47;4957958;28;101006;-27
2023/10/03 01:29:15;;;;;;;15.10;5.13;;;;;;;19.08;80.83;100909.53;4973511;28;96595;-27
2023/10/03 01:31:42;;;;;;;19.90;5.60;;;;;;;19.06;80.76;100903.34;4975111;28;96736;-27
2023/10/03 01:34:07;;;;;;;16.00;5.47;;;;;;;19.03;81.10;100907.25;4972619;28;99529;-27
2023/10/03 01:36:33;;;;;;;20.67;5.18;;;;;;;19.04;81.02;100902.63;4974276;28;99436;-27
2023/10/03 01:38:58;;;;;;;18.48;5.75;;;;;;;19.05;80.83;100896.13;4974970;28;96545;-27
2023/10/03 01:41:23;;;;;;;19.42;6.32;;;;;;;19.08;80.96;100899.41;4974427;28;96851;-27
2023/10/03 01:43:49;;;;;;;17.17;5.60;;;;;;;19.13;80.64;100900.88;4975721;28;97492;-27
2023/10/03 01:46:17;;;;;;;17.98;5.03;;;;;;;19.18;80.56;100893.91;4976571;28;99125;-28
2023/10/03 01:48:43;;;;;;;18.20;5.65;;;;;;;19.18;80.61;100898.53;4978002;28;96489;-27
2023/10/03 01:51:09;;;;;;;19.23;5.82;;;;;;;19.19;80.65;100901.16;4978664;28;96807;-27
2023/10/03 01:53:35;;;;;;;18.88;5.28;;;;;;;19.27;80.49;100908.63;4976318;28;98990;-27
2023/10/03 01:56:00;;;;;;;17.52;5.22;;;;;;;19.32;80.30;100900.78;4976354;28;100870;-27
2023/10/03 01:58:26;;;;;;;16.98;4.88;;;;;;;19.32;80.22;100884.31;4977527;28;96455;-28
2023/10/03 02:00:52;;;;;;;14.23;4.95;;;;;;;19.41;80.40;100872.44;4977959;28;97205;-27
2023/10/03 02:03:18;;;;;;;15.13;4.78;;;;;;;19.42;80.33;100882.38;4977679;28;97368;-27
2023/10/03 02:05:45;;;;;;;16.00;4.68;;;;;;;19.46;80.20;100875.59;4976166;28;101057;-27
2023/10/03 02:08:17;;;;;;;19.17;4.65;;;;;;;19.53;80.19;100882.19;4978044;28;96504;-27
2023/10/03 02:10:49;;;;;;;17.20;4.55;;;;;;;19.57;80.31;100871.78;4976637;28;96701;-28
2023/10/03 02:13:17;;;;;;;14.25;4.57;;;;;;;19.60;80.09;100873.38;4977451;28;99775;-27
2023/10/03 02:15:47;;;;;;;14.57;4.70;;;;;;;19.56;79.90;100847.19;4976463;28;99565;-27
2023/10/03 02:18:13;;;;;;;17.88;5.05;;;;;;;19.62;80.22;100865.84;4976269;28;96583;-27
2023/10/03 02:20:47;;;;;;;15.05;4.63;;;;;;;19.63;80.10;100865.66;4976436;28;96946;-27
2023/10/03 02:23:20;;;;;;;11.20;4.78;;;;;;;19.66;80.22;100864.50;4977055;28;97985;-27
2023/10/03 02:25:49;;;;;;;18.65;4.72;;;;;;;19.66;80.22;100856.25;4977140;28;99591;-27
2023/10/03 02:28:18;;;;;;;15.35;4.32;;;;;;;19.67;80.23;100850.59;4977414;28;96704;-28
2023/10/03 02:30:44;;;;;;;17.58;4.72;;;;;;;19.68;80.77;100837.75;4976289;28;97127;-28
2023/10/03 02:33:12;;;;;;;15.93;4.50;;;;;;;19.68;80.85;100841.34;4975693;28;100793;-27
2023/10/03 02:35:39;;;;;;;17.35;5.20;;;;;;;19.63;80.89;100856.56;4977125;28;97862;-28
2023/10/03 02:38:07;;;;;;;14.55;4.93;;;;;;;19.62;81.30;100857.59;4976251;28;96633;-27
2023/10/03 02:40:35;;;;;;;12.32;3.95;;;;;;;19.55;81.56;100840.84;4976303;28;96765;-27
2023/10/03 02:43:00;;;;;;;17.48;4.90;;;;;;;19.57;81.66;100854.41;4976619;28;99637;-27
2023/10/03 02:45:26;;;;;;;14.57;4.00;;;;;;;19.56;81.94;100858.19;4976752;28;97866;-27
2023/10/03 02:47:55;;;;;;;13.63;4.18;;;;;;;19.52;82.04;100857.63;4976767;28;97772;-28
2023/10/03 02:50:27;;;;;;;13.65;3.80;;;;;;;19.52;82.56;100871.34;4975819;28;96922;-28
2023/10/03 02:52:55;;;;;;;16.35;4.10;;;;;;;19.50;82.40;100866.03;4976953;28;97972;-27
2023/10/03 02:55:22;;;;;;;16.55;3.95;;;;;;;19.45;82.61;100862.88;4976643;28;97940;-28
2023/10/03 02:57:48;;;;;;;13.75;4.47;;;;;;;19.43;83.03;100872.28;4975733;28;96577;-28
2023/10/03 03:00:15;;;;;;;9.23;3.10;;;;;;;19.41;82.67;100885.31;4975651;28;96932;-27
2023/10/03 03:02:47;;;;;;;8.93;3.10;;;;;;;19.43;82.44;100886.88;4975441;28;100874;-28
2023/10/03 03:05:17;;;;;;;8.50;2.50;;;;;;;19.36;82.14;100885.75;4977073;28;98042;-27
2023/10/03 03:07:47;;;;;;;5.88;2.47;;;;;;;19.37;81.98;100889.38;4975495;28;96663;-28
2023/10/03 03:10:14;;;;;;;11.63;2.55;;;;;;;19.27;81.69;100881.16;4976988;28;96706;-29
2023/10/03 03:12:43;;;;;;;7.32;2.55;;;;;;;19.24;82.03;100879.59;4976097;28;98758;-27
2023/10/03 03:15:17;;;;;;;7.15;2.42;;;;;;;19.26;81.79;100891.28;4976404;28;99300;-27
2023/10/03 03:17:43;;;;;;;6.68;1.73;;;;;;;19.25;82.13;100895.03;4977174;28;96628;-27
2023/10/03 03:20:18;;;;;;;6.50;2.20;;;;;;;19.19;82.71;100898.41;4976994;28;96795;-27
2023/10/03 03:22:48;;;;;;;6.90;1.98;;;;;;;19.16;83.17;100906.06;4976343;28;99354;-27
2023/10/03 03:28:15;;;;;;;5.25;1.60;;;;;;;19.04;83.94;100917.22;4954366;28;96792;-27
2023/10/03 03:30:45;;;;;;;3.72;1.80;;;;;;;18.96;84.96;100897.88;4971800;28;96885;-27
2023/10/03 03:33:19;;;;;;;9.85;2.42;;;;;;;18.89;84.95;100902.22;4974715;28;101599;-27
2023/10/03 03:35:46;;;;;;;4.72;1.90;;;;;;;18.88;85.49;100915.09;4976481;28;98301;-28
2023/10/03 03:38:18;;;;;;;9.18;2.47;;;;;;;18.84;86.16;100915.53;4974658;28;96583;-27
2023/10/03 03:40:47;;;;;;;6.07;1.77;;;;;;;18.82;85.82;100925.78;4976282;28;96764;-27
2023/10/03 03:43:16;;;;;;;12.68;2.30;;;;;;;18.77;86.55;100906.13;4974539;28;100844;-27
2023/10/03 03:45:42;;;;;;;8.25;2.50;;;;;;;18.75;86.58;100898.00;4975898;28;98276;-27
2023/10/03 03:48:07;;;;;;;5.00;1.73;;;;;;;18.73;87.16;100907.41;4976436;28;96675;-27
2023/10/03 03:50:34;;;;;;;8.38;2.60;;;;;;;18.76;87.03;100913.50;4976215;28;96906;-27
2023/10/03 03:52:59;;;;;;;4.95;1.67;;;;;;;18.71;86.56;100915.81;4975727;28;99945;-27
2023/10/03 03:55:29;;;;;;;5.65;1.65;;;;;;;18.71;87.26;100907.56;4976584;28;97313;-27
2023/10/03 03:57:59;;;;;;;6.30;1.63;;;;;;;18.70;87.04;100904.97;4974883;28;96629;-30
2023/10/03 04:00:28;;;;;;;6.60;2.25;;;;;;;18.65;87.85;100910.88;4975936;28;96800;-27
2023/10/03 04:02:57;;;;;;;12.55;2.55;;;;;;;18.65;87.44;100919.13;4975148;28;99367;-28
2023/10/03 04:05:23;;;;;;;4.80;1.90;;;;;;;18.66;87.63;100923.56;4975736;28;97846;-27
2023/10/03 04:07:48;;;;;;;7.57;1.85;;;;;;;18.59;87.90;100916.94;4974143;28;96606;-28
2023/10/03 04:10:14;;;;;;;4.57;1.95;;;;;;;18.58;87.84;100921.56;4975937;28;96693;-27
2023/10/03 04:12:43;;;;;;;5.20;2.20;;;;;;;18.59;88.05;100914.19;4975970;28;97408;-27
2023/10/03 04:15:19;;;;;;;10.32;1.85;;;;;;;18.53;87.81;100926.63;4974013;28;101030;-28
2023/10/03 04:17:49;;;;;;;4.72;1.98;;;;;;;18.49;87.67;100913.34;4976229;28;96591;-27
2023/10/03 04:20:48;;;;;;;6.10;1.88;;;;;;;18.48;87.79;100923.44;4975989;28;96836;-29
2023/10/03 04:23:08;;;;;;;7.68;2.53;;;;;;;18.40;88.03;100921.44;4975156;28;98957;-29
2023/10/03 04:25:34;;;;;;;6.68;1.95;;;;;;;18.37;87.90;100926.31;4975140;28;99695;-27
2023/10/03 04:28:00;;;;;;;4.55;1.95;;;;;;;18.34;88.07;100916.50;4973923;28;96680;-27
2023/10/03 04:30:27;;;;;;;5.60;1.63;;;;;;;18.32;87.97;100912.19;4974377;28;96897;-27
2023/10/03 04:32:54;;;;;;;6.00;1.88;;;;;;;18.32;87.88;100913.03;4973973;28;101189;-28
2023/10/03 04:35:22;;;;;;;4.22;1.92;;;;;;;18.26;87.76;100913.63;4973953;28;100958;-27
2023/10/03 04:37:52;;;;;;;8.57;1.85;;;;;;;18.30;87.30;100936.13;4974326;28;96598;-28
2023/10/03 04:40:22;;;;;;;6.60;1.42;;;;;;;18.27;87.99;100929.06;4975424;28;96840;-28
2023/10/03 04:42:52;;;;;;;5.38;1.83;;;;;;;18.30;87.43;100934.25;4973907;28;101213;-27
2023/10/03 04:45:19;;;;;;;4.03;1.42;;;;;;;18.29;87.79;100927.03;4975269;28;97829;-27
2023/10/03 04:47:46;;;;;;;5.75;1.77;;;;;;;18.24;87.93;100924.72;4974100;28;96791;-27
2023/10/03 04:50:16;;;;;;;4.32;1.70;;;;;;;18.29;87.71;100929.78;4975389;28;96901;-27
2023/10/03 04:52:41;;;;;;;8.02;1.88;;;;;;;18.29;87.84;100929.78;4973198;28;101189;-27
2023/10/03 04:55:07;;;;;;;2.75;1.60;;;;;;;18.25;87.31;100934.69;4975039;28;97834;-27
2023/10/03 04:57:33;;;;;;;5.53;1.40;;;;;;;18.30;87.41;100942.47;4975320;28;96662;-27
2023/10/03 05:00:04;;;;;;;2.33;1.40;;;;;;;18.26;87.97;100941.06;4973988;28;96892;-27
2023/10/03 05:02:30;;;;;;;4.22;1.70;;;;;;;18.28;87.85;100941.75;4973595;28;100970;-27
2023/10/03 05:04:55;;;;;;;4.55;1.52;;;;;;;18.29;87.34;100951.72;4974914;28;97710;-27
2023/10/03 05:07:23;;;;;;;3.35;1.45;;;;;;;18.29;88.04;100951.72;4975458;28;96517;-27
2023/10/03 05:09:49;;;;;;;4.15;1.45;;;;;;;18.28;87.62;100943.63;4974326;28;96862;-27
2023/10/03 05:12:14;;;;;;;4.63;1.55;;;;;;;18.31;87.74;100944.22;4973523;28;101254;-28
2023/10/03 05:14:40;;;;;;;7.63;2.10;;;;;;;18.27;88.03;100948.25;4973341;28;99566;-27
2023/10/03 05:17:07;;;;;;;4.40;1.58;;;;;;;18.32;87.97;100953.31;4974188;28;96458;-27
2023/10/03 05:19:32;;;;;;;2.90;1.73;;;;;;;18.27;87.95;100928.19;4972788;28;96831;-27
2023/10/03 05:21:58;;;;;;;3.70;1.75;;;;;;;18.31;87.89;100955.19;4974989;28;97516;-28
2023/10/03 05:24:24;;;;;;;3.75;1.50;;;;;;;18.31;87.72;100948.84;4974645;28;99703;-27
2023/10/03 05:26:49;;;;;;;3.42;1.65;;;;;;;18.31;87.98;100954.34;4975117;28;96679;-27
2023/10/03 05:29:16;;;;;;;4.80;1.60;;;;;;;18.30;87.54;100944.34;4975112;28;96836;-27
2023/10/03 05:31:42;;;;;;;3.53;1.60;;;;;;;18.34;87.52;100943.06;4974262;28;99591;-30
2023/10/03 05:34:08;;;;;;;3.67;1.48;;;;;;;18.32;87.70;100964.28;4972878;28;97960;-28
2023/10/03 05:36:34;;;;;;;7.30;1.48;;;;;;;18.32;87.53;100962.41;4971419;28;97168;-32
2023/10/03 05:39:00;;;;;;;5.68;2.13;;;;;;;18.29;87.77;100961.84;4973231;28;96886;-27
2023/10/03 05:41:25;;;;;;;5.65;1.50;;;;;;;18.30;88.23;100974.53;4972314;28;101256;-27
2023/10/03 05:43:52;;;;;;;3.88;1.58;;;;;;;18.34;87.44;100982.34;4973694;28;99471;-27
2023/10/03 05:46:17;;;;;;;5.40;2.10;;;;;;;18.36;87.87;100974.84;4973387;28;96553;-27
2023/10/03 05:48:43;;;;;;;3.00;1.35;;;;;;;18.33;87.64;100979.72;4974685;28;96771;-27
2023/10/03 05:51:09;;;;;;;5.72;1.67;;;;;;;18.32;87.26;100988.97;4974353;28;99719;-27
2023/10/03 05:53:35;;;;;;;7.53;1.92;;;;;;;18.30;88.22;100988.25;4956709;28;100750;-28
2023/10/03 05:56:06;;;;;;;4.63;1.50;;;;;;;18.21;88.63;100990.84;4972543;28;96677;-30
2023/10/03 05:58:32;;;;;;;7.82;1.77;;;;;;;18.19;89.31;100994.72;4972358;28;97038;-31
2023/10/03 06:00:58;;;;;;;3.22;0.95;;;;;;;18.15;89.61;100994.13;4971829;28;97935;-27
2023/10/03 06:03:24;;;;;;;4.07;1.25;;;;;;;18.06;88.85;101013.28;4970406;28;101036;-29
2023/10/03 06:05:50;;;;;;;2.90;1.10;;;;;;;18.01;89.21;101003.59;4972048;28;97203;-30
2023/10/03 06:08:15;;;;;;;2.25;0.90;;;;;;;18.00;89.33;100999.13;4970946;28;97274;-27
2023/10/03 06:10:41;;;;;;;2.80;1.13;;;;;;;18.01;89.45;101013.69;4972135;28;97817;-33
2023/10/03 06:13:10;;;;;;;2.08;0.90;;;;;;;18.02;89.81;101021.78;4973953;28;97756;-27
2023/10/03 06:15:36;;;;;;;5.35;0.98;;;;;;;18.03;89.34;101025.41;4973169;28;96631;-27
2023/10/03 06:18:02;;;;;;;4.93;0.80;;;;;;;17.97;88.74;101034.16;4974403;28;96612;-27
2023/10/03 06:20:28;;;;;;;6.10;1.48;;;;;;;18.00;88.75;101056.69;4972671;28;101704;-28
2023/10/03 06:22:54;;;;;;;2.03;0.80;;;;;;;17.94;88.73;101048.16;4972949;28;100715;-28
2023/10/03 06:25:19;;;;;;;2.10;0.93;;;;;;;17.99;88.11;101054.94;4973111;28;97139;-29
2023/10/03 06:27:45;;;;;;;2.85;0.85;;;;;;;17.94;88.45;101048.16;4974402;28;96804;-27
2023/10/03 06:30:10;;;;;;;1.98;0.88;;;;;;;17.91;88.20;101045.69;4975369;28;98004;-28
2023/10/03 06:32:36;;;;;;;4.25;0.80;;;;;;;17.98;88.03;101060.59;4977037;28;98930;-29
2023/10/03 06:35:02;;;;;;;3.97;0.95;;;;;;;17.97;88.46;101056.09;4976186;28;96949;-27
2023/10/03 06:37:27;;;;;;;5.82;1.08;;;;;;;17.92;88.02;101051.00;4977565;28;96795;-28
2023/10/03 06:39:52;;;;;;;5.50;0.98;;;;;;;17.95;87.98;101049.91;4976980;28;97428;-27
2023/10/03 06:42:18;;;;;;;1.80;0.80;;;;;;;17.88;87.66;101060.53;4977258;28;97326;-27
2023/10/03 06:44:44;;;;;;;2.50;0.80;;;;;;;17.87;87.78;101046.97;4974924;28;96855;-27
2023/10/03 06:47:10;;;;;;;5.55;1.15;;;;;;;17.91;87.78;101053.91;4977558;28;96854;-28
2023/10/03 06:49:36;;;;;;;2.72;0.88;;;;;;;17.92;87.85;101074.81;4975522;28;100924;-27
2023/10/03 06:52:03;;;;;;;4.03;1.13;;;;;;;17.88;87.35;101096.16;4977153;28;97924;-27
2023/10/03 06:54:29;;;;;;;5.70;0.88;;;;;;;17.89;87.97;101102.50;4976559;28;96740;-27
2023/10/03 06:56:55;;;;;;;3.40;1.27;;;;;;;17.93;87.29;101109.47;4977293;28;96724;-27
2023/10/03 06:59:20;;;;;;;4.07;0.85;;;;;;;17.88;87.87;101109.00;4973733;28;100893;-27
2023/10/03 07:01:46;;;;;;;5.18;1.15;;;;;;;17.88;87.67;101130.94;4976773;28;97785;-27
2023/10/03 07:04:11;;;;;;;2.50;0.75;;;;;;;17.85;88.83;101143.00;4975602;28;96638;-28
2023/10/03 07:06:37;;;;;;;2.13;0.40;;;;;;;17.82;89.32;101156.97;4976801;28;96839;-28
2023/10/03 07:09:06;;;;;;;1.55;0.52;;;;;;;17.75;89.12;101136.56;4975088;28;101601;-27
2023/10/03 07:11:31;;;;;;;4.45;0.60;;;;;;;17.72;89.15;101137.72;4975785;28;100962;-27
2023/10/03 07:13:56;;;;;;;5.50;1.13;;;;;;;17.74;90.06;101151.28;4976869;28;96605;-27
2023/10/03 07:16:22;;;;;;;0.75;0.43;;;;;;;17.65;90.67;101169.38;4977177;28;96745;-27
2023/10/03 07:18:47;;;;;;;3.75;0.82;;;;;;;17.66;91.32;101175.72;4975890;28;99278;-27
2023/10/03 07:21:15;;;;;;;1.05;0.63;;;;;;;17.62;91.93;101169.66;4976597;28;97077;-28
2023/10/03 07:23:41;;;;;;;1.50;0.57;;;;;;;17.61;91.11;101187.97;4976759;28;96501;-28
2023/10/03 07:26:07;;;;;;;0.80;0.40;;;;;;;17.51;91.70;101186.13;4975417;28;96907;-27
2023/10/03 07:28:33;;;;;;;0.93;0.30;;;;;;;17.48;91.60;101186.41;4976251;28;99444;-27
2023/10/03 07:30:58;;;;;;;1.65;0.30;;;;;;;17.45;91.16;101203.97;4974816;28;101402;-27
2023/10/03 07:33:23;;;;;;;1.15;0.43;;;;;;;17.44;91.92;101201.34;4976746;28;96657;-27
2023/10/03 07:35:49;;;;;;;2.58;0.45;;;;;;;17.48;91.92;101208.31;4977025;28;96752;-27
2023/10/03 07:38:14;;;;;;;1.33;0.60;;;;;;;17.47;91.55;101209.31;4976013;28;99360;-27
2023/10/03 07:40:41;;;;;;;1.65;0.50;;;;;;;17.45;91.65;101217.66;4975118;28;99485;-28
2023/10/03 07:43:09;;;;;;;0.98;0.35;;;;;;;17.50;91.62;101239.19;4974200;28;96845;-28
2023/10/03 07:45:37;;;;;;;2.83;0.47;;;;;;;17.50;91.51;101239.19;4974653;28;97037;-27
2023/10/03 07:48:06;;;;;;;0.57;0.30;;;;;;;17.51;91.33;101252.75;4976038;28;97953;-28
2023/10/03 07:50:35;;;;;;;0.55;0.15;;;;;;;17.52;91.59;101265.44;4974688;28;101011;-27
2023/10/03 07:53:00;;;;;;;2.55;0.73;;;;;;;17.48;91.59;101269.44;4974849;28;97863;-27
2023/10/03 07:55:26;;;;;;;3.17;0.50;;;;;;;17.45;91.39;101275.19;4975956;28;96840;-27
2023/10/03 07:57:54;;;;;;;1.13;0.50;;;;;;;17.40;91.28;101272.81;4975970;28;97678;-27
2023/10/03 08:00:20;;;;;;;3.92;0.75;;;;;;;17.37;91.24;101278.53;4976143;28;99115;-28
2023/10/03 08:02:49;;;;;;;0.90;0.45;;;;;;;17.35;91.35;101283.31;4976294;28;96523;-27
2023/10/03 08:05:15;;;;;;;1.05;0.30;;;;;;;17.38;91.01;101284.91;4974726;28;96839;-27
2023/10/03 08:07:47;;;;;;;2.78;0.38;;;;;;;17.38;90.74;101306.81;4973887;28;101123;-27
2023/10/03 08:10:14;;;;;;;;;;;;;;;17.34;90.26;101311.66;4976178;28;99776;-28
2023/10/03 08:12:40;;;;;;;0.85;0.80;;;;;;;17.32;90.15;101330.09;4974516;28;96752;-27
2023/10/03 08:15:31;;;;;;;1.20;0.50;;;;;;;17.20;89.08;101321.00;4976148;28;96852;-27
2023/10/03 08:17:53;;;;;;;0.93;0.20;;;;;;;17.21;89.01;101327.38;4975267;28;98936;-27
2023/10/03 08:20:20;;;;;;;2.10;0.35;;;;;;;17.18;89.06;101344.03;4974219;28;101266;-27
2023/10/03 08:22:51;;;;;;;2.28;0.40;;;;;;;17.20;89.17;101361.22;4974585;28;96586;-28
2023/10/03 08:25:18;;;;;;;1.55;0.85;;;;;;;17.11;89.71;101361.97;4974853;28;96689;-28
2023/10/03 08:27:46;;;;;;;1.77;0.30;;;;;;;17.14;89.83;101376.28;4974174;28;101487;-27
2023/10/03 08:30:27;;;;;;;0.60;0.25;;;;;;;17.13;90.01;101388.22;4974107;28;101492;-27
2023/10/03 08:32:57;;;;;;;1.83;0.37;;;;;;;17.12;90.44;101393.84;4975513;28;96694;-28
2023/10/03 08:35:35;;;;;;;3.45;0.40;;;;;;;17.11;90.72;101398.44;4973875;28;96815;-28
2023/10/03 08:38:13;;;;;;;1.23;0.20;;;;;;;17.06;89.74;101400.66;4973975;28;101071;-27
2023/10/03 08:40:40;;;;;;;0.43;0.08;;;;;;;17.02;89.85;101392.81;4975396;28;97367;-27
2023/10/03 08:43:10;;;;;;;0.38;0.20;;;;;;;17.00;89.54;101389.34;4973991;28;96857;-28
2023/10/03 08:45:52;;;;;;;2.35;0.35;;;;;;;17.05;89.30;101381.63;4975512;28;96810;-27
2023/10/03 08:48:24;;;;;;;;;;;;;;;17.03;88.66;101394.56;4974286;28;101835;-28
2023/10/03 08:50:53;;;;;;;0.55;0.20;;;;;;;17.01;88.71;101412.97;4974325;28;100841;-28
2023/10/03 08:53:26;;;;;;;0.35;0.10;;;;;;;17.06;88.36;101432.63;4973693;28;96583;-29
2023/10/03 08:55:57;;;;;;;1.85;0.25;;;;;;;17.05;88.09;101433.63;4974142;28;96606;-28
2023/10/03 08:58:26;;;;;;;0.20;0.10;;;;;;;17.00;87.99;101433.13;4974309;28;99809;-27
2023/10/03 09:00:58;;;;;;;4.18;0.50;;;;;;;17.07;88.17;101456.28;4973573;28;101168;-27
2023/10/03 09:03:47;;;;;;;1.00;0.32;;;;;;;17.01;87.94;101446.69;4974167;28;96597;-27
2023/10/03 09:06:19;;;;;;;0.50;0.20;;;;;;;16.90;88.09;101453.03;4975611;28;96562;-27
2023/10/03 09:09:07;;;;;;;3.42;0.35;;;;;;;16.93;88.66;101452.78;4974922;28;98087;-28
2023/10/03 09:11:36;;;;;;;0.90;0.10;;;;;;;16.89;88.95;101459.47;4974905;28;99543;-28
2023/10/03 09:14:01;;;;;;;0.90;0.35;;;;;;;16.92;89.13;101464.72;4973615;28;96780;-27
2023/10/03 09:16:28;;;;;;;2.72;0.40;;;;;;;16.98;88.82;101480.66;4974190;28;96823;-27
2023/10/03 09:18:57;;;;;;;3.17;0.50;;;;;;;16.93;88.84;101471.06;4973504;28;101177;-28
2023/10/03 09:21:29;;;;;;;0.60;0.40;;;;;;;17.01;89.40;101490.47;4973103;28;100739;-27
2023/10/03 09:24:01;;;;;;;3.55;0.28;;;;;;;17.02;89.10;101508.66;4973328;28;96737;-27
2023/10/03 09:26:46;;;;;;;1.70;0.30;;;;;;;16.94;89.04;101513.84;4973775;28;96688;-28
2023/10/03 09:29:29;;;;;;;1.73;0.40;;;;;;;16.91;89.50;101534.13;4973426;28;101191;-28
2023/10/03 09:31:58;;;;;;;1.95;0.60;;;;;;;16.77;89.53;101537.00;4974509;28;99248;-28
2023/10/03 09:34:30;;;;;;;1.52;0.28;;;;;;;16.69;89.39;101521.19;4973509;28;96630;-27
2023/10/03 09:37:02;;;;;;;0.47;0.13;;;;;;;16.69;89.78;101526.66;4974912;28;96640;-27
2023/10/03 09:39:47;;;;;;;0.00;0.00;;;;;;;16.70;89.34;101539.34;4974593;28;98516;-27
2023/10/03 09:42:17;;;;;;;0.20;0.10;;;;;;;16.72;89.30;101545.56;4974918;28;97861;-28
2023/10/03 09:44:44;;;;;;;0.38;0.17;;;;;;;16.67;89.28;101541.44;4972824;28;96762;-27
2023/10/03 09:47:12;;;;;;;0.22;0.15;;;;;;;16.66;89.15;101550.63;4973461;28;96990;-27
2023/10/03 09:49:38;;;;;;;0.35;0.30;;;;;;;16.64;88.91;101553.50;4974062;28;97921;-29
2023/10/03 09:52:09;;;;;;;1.33;0.10;;;;;;;16.61;89.05;101553.72;4973119;28;100811;-28
2023/10/03 09:54:39;;;;;;;1.13;0.33;;;;;;;16.62;88.93;101557.34;4973148;28;97127;-27
2023/10/03 09:57:52;;;;;;;1.58;0.60;;;;;;;16.54;88.63;101553.31;4973421;28;96856;-27
2023/10/03 09:59:52;;;;;;;0.90;0.30;;;;;;;16.55;89.12;101560.53;4973221;28;97996;-27
2023/10/03 10:02:33;;;;;;;1.17;0.43;;;;;;;16.55;89.40;101560.53;4972953;28;100929;-28
2023/10/03 10:05:06;;;;;;;0.40;0.13;;;;;;;16.55;89.35;101552.31;4976016;28;96659;-27
2023/10/03 10:07:49;;;;;;;0.85;0.35;;;;;;;16.55;89.53;101560.53;4977154;28;96750;-27
2023/10/03 10:10:19;;;;;;;0.82;0.32;;;;;;;16.60;89.46;101573.84;4976369;28;101012;-28
2023/10/03 10:13:22;;;;;;;0.43;0.22;;;;;;;16.62;89.65;101576.50;4977557;28;98961;-27
2023/10/03 10:16:00;;;;;;;2.03;0.47;;;;;;;16.62;89.27;101579.22;4975986;28;96667;-27
2023/10/03 10:18:43;;;;;;;5.03;0.80;;;;;;;16.56;89.41;101570.50;4978006;28;96879;-28
2023/10/03 10:21:31;;;;;;;2.22;0.60;;;;;;;16.66;89.47;101578.88;4977690;28;97329;-27
2023/10/03 10:24:24;;;;;;;1.13;0.35;;;;;;;16.70;89.54;101595.91;4975901;28;99091;-28
2023/10/03 10:26:59;;;;;;;3.35;0.52;;;;;;;16.75;89.27;101601.91;4977723;28;96575;-27
2023/10/03 10:29:25;;;;;;;4.63;0.95;;;;;;;16.77;89.65;101603.53;4977839;28;96539;-27
2023/10/03 10:31:58;;;;;;;1.33;0.47;;;;;;;16.81;89.36;101625.25;4975960;28;101009;-28
2023/10/03 10:34:27;;;;;;;3.60;0.90;;;;;;;16.75;89.41;101624.66;4976207;28;101002;-27
2023/10/03 10:37:18;;;;;;;1.67;0.70;;;;;;;16.69;89.48;101625.16;4977774;28;96516;-27
2023/10/03 10:42:56;;;;;;;4.25;0.70;;;;;;;16.62;89.31;101640.28;4976537;28;97875;-27
2023/10/03 10:45:23;;;;;;;4.70;1.10;;;;;;;16.59;89.17;101654.19;4975271;28;99046;-29
2023/10/03 10:47:51;;;;;;;1.35;0.65;;;;;;;16.56;89.84;101663.50;4976130;28;96659;-28
2023/10/03 10:50:26;;;;;;;2.15;0.93;;;;;;;16.58;90.03;101667.97;4977425;28;96755;-28
2023/10/03 10:52:56;;;;;;;1.48;0.47;;;;;;;16.55;90.32;101664.47;4975660;28;100638;-28
2023/10/03 10:55:23;;;;;;;1.10;0.50;;;;;;;16.47;90.38;101672.38;4975478;28;100673;-28
2023/10/03 10:58:01;;;;;;;2.58;0.80;;;;;;;16.52;90.75;101672.91;4975853;28;96650;-27
2023/10/03 11:00:27;;;;;;;3.85;0.90;;;;;;;16.53;90.19;101687.44;4977512;28;96944;-27
2023/10/03 11:02:52;;;;;;;3.22;0.80;;;;;;;16.42;90.44;101680.03;4976885;28;97944;-27
2023/10/03 11:05:17;;;;;;;1.20;0.55;;;;;;;16.44;90.25;101688.97;4976561;28;99276;-28
2023/10/03 11:07:54;;;;;;;4.10;1.02;;;;;;;16.41;90.13;101691.94;4976581;28;96510;-27
2023/10/03 11:10:21;;;;;;;4.32;1.38;;;;;;;16.41;90.16;101700.16;4975604;28;97057;-28
2023/10/03 11:12:56;;;;;;;3.25;1.10;;;;;;;16.35;89.83;101712.44;4976604;28;99414;-27
2023/10/03 11:15:22;;;;;;;3.78;1.08;;;;;;;16.26;89.72;101707.63;4975134;28;102379;-30
2023/10/03 11:17:50;;;;;;;6.25;1.17;;;;;;;16.26;90.50;101724.03;4976922;28;96500;-27
2023/10/03 11:20:16;;;;;;;2.95;0.90;;;;;;;16.22;90.39;101721.59;4976903;28;96770;-27
2023/10/03 11:22:44;;;;;;;3.17;0.85;;;;;;;16.15;90.23;101734.84;4975084;28;101064;-27
2023/10/03 11:25:10;;;;;;;2.58;0.70;;;;;;;16.09;90.00;101735.28;4975420;28;101233;-28
2023/10/03 11:27:36;;;;;;;1.70;0.70;;;;;;;16.03;90.61;101747.50;4975338;28;96636;-29
2023/10/03 11:30:19;;;;;;;3.85;0.98;;;;;;;16.05;90.74;101741.94;4975274;28;96909;-27
2023/10/03 11:32:45;;;;;;;5.60;0.88;;;;;;;16.06;90.57;101752.75;4975621;28;99543;-29
2023/10/03 11:35:18;;;;;;;4.43;0.73;;;;;;;16.08;91.19;101744.44;4974887;28;101384;-27
2023/10/03 11:37:45;;;;;;;1.80;0.60;;;;;;;16.18;90.65;101751.00;4976479;28;96467;-29